Saint Leo, Minnesota
Current Conditions -  °F | °C
As of 10:55 AM on Friday 28 Nov 2014 (Local Time) from KMML Reporting Station
Scattered Clouds Scattered Clouds  
Wind Chill:   Ceiling: Unl
Heat Index: 16°   Visibility: 10mi
Dew Point: 10°   Wind: 8mph
Humidity: 79%   Direction: 100°E
Pressure: 29.85"   Gusts: NA
Location:  44.5481°N, 95.9664°W
Report Text: KMML 281655Z AUTO 10007KT 10SM FEW080 SCT090 M09/M12 A2985 RMK AO1
Loading
Personal Weather Stations






























Interactive Weather Map New forecast layout! Learn more

10-Day Weather Forecast

Advertisements
Track Severe Weather on mobile